createdAt,value
2018-03-25T00:02:13.960Z,13.67
2018-03-25T00:04:41.533Z,19.60
2018-03-25T00:07:09.028Z,17.37
2018-03-25T00:09:36.582Z,15.57
2018-03-25T00:12:04.041Z,14.03
2018-03-25T00:14:31.489Z,13.53
2018-03-25T00:16:58.954Z,15.47
2018-03-25T00:19:27.169Z,15.77
2018-03-25T00:21:54.617Z,15.03
2018-03-25T00:24:22.061Z,17.03
2018-03-25T00:26:50.284Z,16.30
2018-03-25T00:29:17.731Z,12.57
2018-03-25T00:31:45.960Z,14.43
2018-03-25T00:34:13.422Z,12.57
2018-03-25T00:36:40.877Z,12.03
2018-03-25T00:39:08.329Z,13.40
2018-03-25T00:41:36.537Z,15.40
2018-03-25T00:44:03.988Z,11.30
2018-03-25T00:46:32.216Z,15.00
2018-03-25T00:48:59.681Z,11.77
2018-03-25T00:51:27.133Z,11.57
2018-03-25T00:53:54.586Z,13.97
2018-03-25T00:56:22.798Z,13.27
2018-03-25T00:58:50.249Z,14.03
2018-03-25T01:01:18.460Z,14.77
2018-03-25T01:03:45.942Z,12.60
2018-03-25T01:06:13.436Z,12.23
2018-03-25T01:08:40.913Z,13.07
2018-03-25T01:11:08.388Z,14.37
2018-03-25T01:13:35.943Z,10.90
2018-03-25T01:16:11.756Z,11.97
2018-03-25T01:18:39.998Z,16.63
2018-03-25T01:21:07.446Z,15.10
2018-03-25T01:23:34.909Z,15.27
2018-03-25T01:26:03.109Z,15.53
2018-03-25T01:28:30.565Z,14.43
2018-03-25T01:30:58.009Z,12.37
2018-03-25T01:33:26.224Z,15.43
2018-03-25T01:35:53.729Z,17.27
2018-03-25T01:38:21.197Z,14.87
2018-03-25T01:40:48.641Z,17.27
2018-03-25T01:43:16.143Z,14.40
2018-03-25T01:45:50.349Z,14.13
2018-03-25T01:48:17.840Z,15.87
2018-03-25T01:50:45.322Z,15.70
2018-03-25T01:53:12.779Z,16.67
2018-03-25T01:55:40.353Z,16.40
2018-03-25T01:58:07.800Z,15.13
2018-03-25T02:00:35.276Z,12.97
2018-03-25T02:03:02.773Z,14.50
2018-03-25T02:05:30.245Z,11.23
2018-03-25T02:07:57.694Z,14.97
2018-03-25T02:10:25.170Z,13.60
2018-03-25T02:12:52.617Z,14.50
2018-03-25T02:15:20.096Z,13.60
2018-03-25T02:17:47.545Z,14.30
2018-03-25T02:20:15.785Z,15.00
2018-03-25T02:22:43.229Z,10.97
2018-03-25T02:25:10.709Z,14.00
2018-03-25T02:27:39.122Z,13.93
2018-03-25T02:30:06.593Z,16.27
2018-03-25T02:32:34.070Z,12.40
2018-03-25T02:35:01.519Z,13.80
2018-03-25T02:37:29.001Z,13.10
2018-03-25T02:39:56.478Z,12.37
2018-03-25T02:42:23.989Z,12.33
2018-03-25T02:44:51.436Z,19.33
2018-03-25T02:47:18.902Z,12.47
2018-03-25T02:49:46.345Z,12.03
2018-03-25T02:52:13.817Z,13.63
2018-03-25T02:54:41.264Z,13.93
2018-03-25T02:57:08.732Z,12.30
2018-03-25T02:59:36.177Z,12.77
2018-03-25T03:02:04.417Z,13.03
2018-03-25T03:04:31.873Z,13.50
2018-03-25T03:06:59.350Z,11.50
2018-03-25T03:09:26.807Z,16.30
2018-03-25T03:11:54.308Z,16.90
2018-03-25T03:14:21.783Z,13.10
2018-03-25T03:16:49.441Z,12.37
2018-03-25T03:19:16.893Z,10.30
2018-03-25T03:21:44.369Z,15.80
2018-03-25T03:24:11.809Z,13.97
2018-03-25T03:26:40.045Z,13.70
2018-03-25T03:29:07.485Z,14.53
2018-03-25T03:31:35.003Z,15.70
2018-03-25T03:34:02.440Z,17.27
2018-03-25T03:36:30.681Z,15.53
2018-03-25T03:38:58.246Z,15.00
2018-03-25T03:41:25.714Z,12.47
2018-03-25T03:43:53.156Z,15.43
2018-03-25T03:46:20.628Z,13.53
2018-03-25T03:48:48.065Z,14.90
2018-03-25T03:51:16.402Z,16.43
2018-03-25T03:53:43.844Z,12.07
2018-03-25T03:56:11.322Z,11.50
2018-03-25T03:58:38.778Z,16.03
2018-03-25T04:01:07.008Z,13.97
2018-03-25T04:03:34.450Z,14.23
2018-03-25T04:06:01.917Z,16.80
2018-03-25T04:08:29.353Z,12.93
2018-03-25T04:10:56.829Z,11.70
2018-03-25T04:13:25.048Z,12.10
2018-03-25T04:15:52.533Z,12.50
2018-03-25T04:18:19.964Z,12.33
2018-03-25T04:20:48.218Z,14.37
2018-03-25T04:23:15.659Z,11.00
2018-03-25T04:25:43.146Z,12.50
2018-03-25T04:28:10.625Z,14.20
2018-03-25T04:30:38.081Z,16.17
2018-03-25T04:33:05.553Z,14.80
2018-03-25T04:35:32.996Z,13.03
2018-03-25T04:38:00.469Z,12.37
2018-03-25T04:40:27.916Z,13.57
2018-03-25T04:42:56.157Z,10.73
2018-03-25T04:45:23.637Z,14.77
2018-03-25T04:47:51.113Z,12.70
2018-03-25T04:50:18.564Z,12.00
2018-03-25T04:52:46.033Z,16.97
2018-03-25T04:55:13.481Z,15.07
2018-03-25T04:57:40.952Z,14.70
2018-03-25T05:00:08.388Z,17.80
2018-03-25T05:02:35.861Z,16.50
2018-03-25T05:05:04.086Z,13.00
2018-03-25T05:07:31.586Z,15.60
2018-03-25T05:09:59.024Z,15.00
2018-03-25T05:12:26.494Z,15.43
2018-03-25T05:14:53.937Z,14.33
2018-03-25T05:17:22.190Z,12.73
2018-03-25T05:19:49.637Z,13.77
2018-03-25T05:22:17.108Z,13.20
2018-03-25T05:24:44.549Z,11.70
2018-03-25T05:27:12.896Z,12.70
2018-03-25T05:29:40.369Z,14.10
2018-03-25T05:32:07.933Z,15.23
2018-03-25T05:34:35.370Z,14.80
2018-03-25T05:37:02.880Z,12.57
2018-03-25T05:39:30.324Z,15.70
2018-03-25T05:41:57.801Z,20.40
2018-03-25T05:44:25.290Z,15.43
2018-03-25T05:46:52.733Z,17.17
2018-03-25T05:49:20.237Z,17.13
2018-03-25T05:51:47.717Z,13.87
2018-03-25T05:54:16.693Z,15.70
2018-03-25T05:56:44.282Z,17.13
2018-03-25T05:59:11.753Z,15.20
2018-03-25T06:01:39.204Z,12.27
2018-03-25T06:04:06.686Z,12.90
2018-03-25T06:06:34.128Z,15.13
2018-03-25T06:09:01.633Z,13.80
2018-03-25T06:11:29.073Z,16.03
2018-03-25T06:13:56.549Z,13.70
2018-03-25T07:17:21.955Z,21.50
2018-03-25T07:19:49.849Z,15.70
2018-03-25T07:22:17.683Z,20.93
2018-03-25T07:24:45.594Z,17.97
2018-03-25T07:27:13.131Z,14.30
2018-03-25T07:29:42.366Z,13.77
2018-03-25T07:32:09.975Z,12.63
2018-03-25T07:34:37.464Z,15.17
2018-03-25T07:37:04.972Z,11.33
2018-03-25T07:39:33.218Z,13.53
2018-03-25T07:42:00.730Z,12.33
2018-03-25T07:44:28.967Z,15.03
2018-03-25T07:46:56.445Z,12.57
2018-03-25T07:51:57.931Z,12.70
2018-03-25T07:54:25.395Z,13.63
2018-03-25T07:56:52.906Z,12.27
2018-03-25T07:59:20.367Z,17.50
2018-03-25T08:01:47.839Z,12.13
2018-03-25T08:04:15.316Z,10.43
2018-03-25T08:06:46.154Z,10.17
2018-03-25T08:09:13.706Z,10.33
2018-03-25T08:11:41.953Z,11.40
2018-03-25T08:14:10.203Z,10.87
2018-03-25T08:16:40.248Z,12.23
2018-03-25T08:19:07.727Z,13.30
2018-03-25T08:21:36.180Z,10.87
2018-03-25T08:24:03.725Z,13.73
2018-03-25T08:26:31.226Z,19.50
2018-03-25T08:28:59.467Z,23.93
2018-03-25T08:31:26.988Z,10.77
2018-03-25T08:33:56.268Z,10.67
2018-03-25T08:36:23.780Z,11.60
2018-03-25T08:38:51.269Z,9.43
2018-03-25T08:41:18.755Z,9.07
2018-03-25T08:43:46.258Z,11.20
2018-03-25T08:46:13.896Z,10.90
2018-03-25T08:48:42.170Z,12.57
2018-03-25T08:51:09.708Z,14.20
2018-03-25T08:53:37.971Z,11.50
2018-03-25T08:56:05.613Z,11.83
2018-03-25T08:58:33.118Z,17.27
2018-03-25T09:01:00.668Z,15.03
2018-03-25T09:03:28.189Z,14.70
2018-03-25T09:05:55.703Z,14.37
2018-03-25T09:08:23.185Z,13.53
2018-03-25T09:10:50.671Z,11.90
2018-03-25T09:13:18.949Z,13.07
2018-03-25T09:15:47.261Z,19.90
2018-03-25T09:18:14.746Z,14.83
2018-03-25T09:20:42.390Z,20.97
2018-03-25T09:23:10.730Z,16.90
2018-03-25T09:28:39.682Z,19.07
2018-03-25T09:31:07.209Z,19.97
2018-03-25T09:33:34.729Z,18.37
2018-03-25T09:36:02.290Z,18.80
2018-03-25T09:38:29.761Z,19.27
2018-03-25T09:40:57.262Z,20.20
2018-03-25T09:43:24.728Z,20.17
2018-03-25T09:45:52.280Z,20.80
2018-03-25T09:48:19.740Z,19.80
2018-03-25T09:50:47.230Z,18.97
2018-03-25T09:53:14.708Z,23.27
2018-03-25T09:55:42.221Z,19.83
2018-03-25T09:58:10.450Z,19.13
2018-03-25T10:00:37.952Z,21.93
2018-03-25T10:03:11.148Z,21.47
2018-03-25T10:05:38.658Z,21.17
2018-03-25T10:08:06.893Z,15.77
2018-03-25T10:10:34.409Z,21.47
2018-03-25T10:13:02.636Z,18.27
2018-03-25T10:15:30.127Z,21.37
2018-03-25T10:17:57.631Z,24.10
2018-03-25T10:20:25.893Z,22.53
2018-03-25T10:22:53.366Z,19.60
2018-03-25T10:25:22.513Z,24.03
2018-03-25T10:27:50.741Z,18.90
2018-03-25T10:30:18.234Z,21.70
2018-03-25T10:32:45.705Z,22.20
2018-03-25T10:35:13.209Z,22.13
2018-03-25T10:37:40.665Z,19.50
2018-03-25T10:40:08.168Z,19.93
2018-03-25T10:42:36.413Z,23.07
2018-03-25T10:45:03.890Z,22.03
2018-03-25T10:47:31.354Z,23.70
2018-03-25T10:49:58.883Z,23.13
2018-03-25T10:52:26.362Z,22.43
2018-03-25T10:54:53.826Z,20.50
2018-03-25T10:57:21.352Z,20.33
2018-03-25T10:59:48.819Z,22.57
2018-03-25T11:02:16.334Z,23.97
2018-03-25T11:04:43.876Z,21.00
2018-03-25T11:07:11.390Z,25.33
2018-03-25T11:09:38.859Z,32.40
2018-03-25T11:12:06.341Z,24.43
2018-03-25T11:14:33.819Z,23.97
2018-03-25T11:17:01.317Z,24.30
2018-03-25T11:19:28.773Z,24.93
2018-03-25T11:21:56.271Z,24.30
2018-03-25T11:24:23.777Z,22.13
2018-03-25T11:26:52.035Z,19.20
2018-03-25T11:29:19.503Z,24.37
2018-03-25T11:31:46.995Z,27.70
2018-03-25T11:34:15.227Z,29.07
2018-03-25T11:36:42.721Z,29.17
2018-03-25T11:39:10.186Z,23.87
2018-03-25T11:41:38.452Z,23.20
2018-03-25T11:44:05.913Z,28.90
2018-03-25T11:46:33.402Z,22.43
2018-03-25T11:49:00.872Z,21.43
2018-03-25T11:51:28.373Z,23.23
2018-03-25T11:53:55.836Z,21.70
2018-03-25T11:56:23.338Z,20.33
2018-03-25T11:58:51.582Z,28.60
2018-03-25T12:01:19.069Z,21.43
2018-03-25T12:03:46.534Z,21.13
2018-03-25T12:06:14.026Z,23.50
2018-03-25T12:08:41.514Z,22.37
2018-03-25T12:11:09.828Z,20.60
2018-03-25T12:13:37.260Z,23.73
2018-03-25T12:16:04.754Z,23.10
2018-03-25T12:18:32.993Z,24.20
2018-03-25T12:21:00.488Z,19.50
2018-03-25T12:23:27.964Z,23.60
2018-03-25T12:25:55.451Z,24.40
2018-03-25T12:28:23.691Z,22.35
2018-03-25T12:30:51.186Z,22.20
2018-03-25T12:33:18.673Z,19.33
2018-03-25T12:35:46.940Z,25.27
2018-03-25T12:38:14.405Z,20.40
2018-03-25T12:40:41.908Z,22.87
2018-03-25T12:43:09.387Z,24.27
2018-03-25T12:45:37.715Z,21.70
2018-03-25T12:48:05.178Z,19.90
2018-03-25T12:50:32.670Z,23.97
2018-03-25T12:53:00.150Z,25.40
2018-03-25T12:55:27.653Z,23.43
2018-03-25T12:57:55.890Z,23.87
2018-03-25T13:00:23.385Z,23.03
2018-03-25T13:02:50.855Z,23.20
2018-03-25T13:05:18.343Z,22.00
2018-03-25T13:07:45.809Z,22.00
2018-03-25T13:10:13.303Z,20.30
2018-03-25T13:12:41.538Z,19.60
2018-03-25T13:15:09.034Z,20.77
2018-03-25T13:17:36.494Z,18.60
2018-03-25T13:20:04.079Z,19.90
2018-03-25T13:22:31.573Z,18.20
2018-03-25T13:24:59.056Z,18.75
2018-03-25T13:27:27.282Z,19.27
2018-03-25T13:29:54.791Z,20.53
2018-03-25T13:32:22.266Z,23.67
2018-03-25T13:34:49.767Z,19.23
2018-03-25T13:37:18.014Z,19.60
2018-03-25T13:39:45.519Z,19.93
2018-03-25T13:42:13.746Z,18.80
2018-03-25T13:44:41.251Z,18.07
2018-03-25T13:47:08.705Z,20.40
2018-03-25T13:49:36.206Z,19.27
2018-03-25T13:52:03.678Z,16.93
2018-03-25T13:54:31.941Z,17.10
2018-03-25T13:57:00.224Z,16.13
2018-03-25T13:59:27.733Z,15.60
2018-03-25T14:01:55.965Z,12.37
2018-03-25T14:04:23.474Z,11.40
2018-03-25T14:06:50.949Z,10.60
2018-03-25T14:09:19.207Z,11.00
2018-03-25T14:11:46.702Z,11.40
2018-03-25T14:14:14.192Z,10.80
2018-03-25T14:16:41.734Z,13.03
2018-03-25T14:19:09.191Z,13.20
2018-03-25T14:21:36.722Z,10.87
2018-03-25T14:24:04.941Z,13.10
2018-03-25T14:26:32.466Z,14.50
2018-03-25T14:28:59.941Z,17.37
2018-03-25T14:31:27.435Z,15.70
2018-03-25T14:33:54.902Z,15.40
2018-03-25T14:36:23.186Z,8.63
2018-03-25T14:38:51.415Z,7.70
2018-03-25T14:41:25.795Z,10.63
2018-03-25T14:43:53.203Z,9.63
2018-03-25T14:46:20.705Z,10.90
2018-03-25T14:48:48.193Z,10.80
2018-03-25T14:51:15.697Z,12.20
2018-03-25T14:53:43.936Z,17.80
2018-03-25T14:56:11.430Z,13.97
2018-03-25T14:58:38.935Z,13.90
2018-03-25T15:01:06.425Z,14.00
2018-03-25T15:03:33.928Z,13.70
2018-03-25T15:06:02.185Z,15.43
2018-03-25T15:08:29.660Z,13.43
2018-03-25T15:10:57.159Z,17.23
2018-03-25T15:13:24.634Z,16.73
2018-03-25T15:15:52.140Z,14.40
2018-03-25T15:18:20.375Z,16.70
2018-03-25T15:20:47.862Z,15.27
2018-03-25T15:23:15.333Z,15.87
2018-03-25T15:25:42.829Z,15.47
2018-03-25T15:28:11.070Z,14.67
2018-03-25T15:30:38.570Z,17.20
2018-03-25T15:33:06.021Z,13.33
2018-03-25T15:35:33.509Z,10.30
2018-03-25T15:38:01.009Z,10.67
2018-03-25T15:40:28.468Z,15.40
2018-03-25T15:42:55.933Z,9.23
2018-03-25T15:45:23.430Z,15.63
2018-03-25T15:47:53.455Z,18.40
2018-03-25T15:50:21.014Z,13.57
2018-03-25T15:52:48.498Z,13.70
2018-03-25T15:55:15.992Z,13.83
2018-03-25T15:57:43.466Z,15.20
2018-03-25T16:00:10.952Z,12.77
2018-03-25T16:02:38.430Z,15.43
2018-03-25T16:05:05.926Z,11.33
2018-03-25T16:07:33.390Z,12.93
2018-03-25T16:10:00.886Z,15.03
2018-03-25T16:12:28.349Z,15.00
2018-03-25T16:14:55.841Z,12.50
2018-03-25T16:17:24.065Z,14.53
2018-03-25T16:19:51.550Z,9.50
2018-03-25T16:22:19.034Z,12.33
2018-03-25T16:24:46.531Z,17.47
2018-03-25T16:27:13.990Z,14.10
2018-03-25T16:29:42.255Z,15.10
2018-03-25T16:32:09.724Z,14.60
2018-03-25T16:34:37.205Z,15.03
2018-03-25T16:37:04.671Z,15.60
2018-03-25T16:39:32.171Z,16.13
2018-03-25T16:41:59.638Z,15.63
2018-03-25T16:44:27.121Z,17.23
2018-03-25T16:46:55.546Z,13.00
2018-03-25T16:49:23.043Z,9.60
2018-03-25T16:51:50.534Z,18.40
2018-03-25T16:54:18.018Z,16.07
2018-03-25T16:56:45.496Z,17.97
2018-03-25T16:59:13.056Z,14.00
2018-03-25T17:01:40.530Z,15.53
2018-03-25T17:04:08.014Z,13.83
2018-03-25T17:06:35.485Z,19.27
2018-03-25T17:09:03.045Z,16.10
2018-03-25T17:11:30.470Z,16.87
2018-03-25T17:13:57.945Z,9.70
2018-03-25T17:16:25.409Z,13.97
2018-03-25T17:18:52.898Z,10.17
2018-03-25T17:21:21.154Z,12.57
2018-03-25T17:23:49.390Z,13.47
2018-03-25T17:26:16.877Z,13.83
2018-03-25T17:28:44.344Z,15.30
2018-03-25T17:31:11.849Z,11.90
2018-03-25T17:33:40.097Z,11.00
2018-03-25T17:36:07.590Z,12.53
2018-03-25T17:38:35.103Z,12.97
2018-03-25T17:41:02.603Z,11.67
2018-03-25T17:43:30.065Z,11.20
2018-03-25T17:45:58.550Z,12.47
2018-03-25T17:48:26.033Z,13.60
2018-03-25T17:50:53.517Z,13.40
2018-03-25T17:53:20.977Z,11.10
2018-03-25T17:55:48.540Z,12.40
2018-03-25T17:58:16.727Z,14.80
2018-03-25T18:00:44.214Z,13.30
2018-03-25T18:03:11.781Z,13.60
2018-03-25T18:05:39.299Z,10.87
2018-03-25T18:08:06.748Z,13.90
2018-03-25T18:10:34.245Z,12.77
2018-03-25T18:13:02.487Z,15.77
2018-03-25T18:15:29.984Z,14.70
2018-03-25T18:17:57.648Z,15.27
2018-03-25T18:20:25.909Z,12.60
2018-03-25T18:22:53.354Z,13.30
2018-03-25T18:25:21.611Z,17.70
2018-03-25T18:27:49.071Z,11.20
2018-03-25T18:30:16.554Z,13.50
2018-03-25T18:32:44.014Z,9.23
2018-03-25T18:35:11.493Z,11.60
2018-03-25T18:37:38.972Z,10.20
2018-03-25T18:40:06.454Z,8.33
2018-03-25T18:42:34.673Z,8.80
2018-03-25T18:45:02.158Z,9.70
2018-03-25T18:47:29.619Z,7.77
2018-03-25T18:49:57.112Z,12.73
2018-03-25T18:52:24.570Z,10.00
2018-03-25T18:54:52.061Z,12.67
2018-03-25T18:57:19.502Z,9.80
2018-03-25T18:59:46.982Z,8.40
2018-03-25T19:02:14.447Z,9.80
2018-03-25T19:04:41.925Z,11.03
2018-03-25T19:07:09.390Z,10.47
2018-03-25T19:09:36.874Z,12.87
2018-03-25T19:12:05.135Z,11.17
2018-03-25T19:14:32.622Z,12.63
2018-03-25T19:17:00.090Z,12.63
2018-03-25T19:19:27.569Z,8.13
2018-03-25T19:21:55.033Z,10.87
2018-03-25T19:24:22.520Z,9.37
2018-03-25T19:26:49.981Z,10.13
2018-03-25T19:29:17.458Z,9.03
2018-03-25T19:31:44.982Z,12.10
2018-03-25T19:34:12.466Z,10.20
2018-03-25T19:36:40.682Z,8.70
2018-03-25T19:39:08.171Z,10.07
2018-03-25T19:41:35.622Z,9.03
2018-03-25T19:44:03.147Z,9.40
2018-03-25T19:46:30.597Z,9.00
2018-03-25T19:48:58.072Z,10.37
2018-03-25T19:51:25.535Z,12.97
2018-03-25T19:53:53.789Z,13.10
2018-03-25T19:56:21.233Z,21.13
2018-03-25T19:58:49.481Z,13.60
2018-03-25T20:01:16.945Z,15.87
2018-03-25T20:03:44.488Z,17.10
2018-03-25T20:06:11.886Z,13.13
2018-03-25T20:08:39.382Z,12.97
2018-03-25T20:11:06.867Z,20.90
2018-03-25T20:13:34.336Z,14.33
2018-03-25T20:16:01.821Z,14.57
2018-03-25T20:18:30.061Z,17.90
2018-03-25T20:20:57.518Z,11.70
2018-03-25T20:23:24.990Z,12.00
2018-03-25T20:25:52.445Z,11.70
2018-03-25T20:28:19.926Z,15.70
2018-03-25T20:30:47.386Z,12.83
2018-03-25T20:33:15.718Z,12.87
2018-03-25T20:35:43.954Z,13.53
2018-03-25T20:38:11.477Z,17.37
2018-03-25T20:40:38.958Z,13.97
2018-03-25T20:43:07.174Z,14.63
2018-03-25T20:45:35.403Z,13.90
2018-03-25T20:48:02.861Z,15.50
2018-03-25T20:50:30.341Z,14.93
2018-03-25T20:52:57.781Z,14.10
2018-03-25T20:55:26.012Z,14.53
2018-03-25T20:57:53.465Z,17.53
2018-03-25T21:00:20.931Z,12.67
2018-03-25T21:02:48.395Z,16.50
2018-03-25T21:05:16.623Z,14.17
2018-03-25T21:07:44.070Z,13.50
2018-03-25T21:10:11.530Z,13.37
2018-03-25T21:12:39.010Z,16.10
2018-03-25T21:15:06.600Z,15.57
2018-03-25T21:17:34.071Z,14.07
2018-03-25T21:20:01.532Z,16.97
2018-03-25T21:22:28.984Z,13.33
2018-03-25T21:24:56.438Z,17.17
2018-03-25T21:27:24.661Z,15.53
2018-03-25T21:29:52.117Z,16.53
2018-03-25T21:32:19.574Z,12.90
2018-03-25T21:34:47.802Z,14.40
2018-03-25T21:37:15.264Z,16.33
2018-03-25T21:39:42.740Z,16.30
2018-03-25T21:42:10.217Z,15.47
2018-03-25T21:44:37.674Z,17.00
2018-03-25T21:47:05.146Z,20.07
2018-03-25T21:49:32.602Z,19.00
2018-03-25T21:52:00.185Z,15.40
2018-03-25T21:54:27.666Z,19.37
2018-03-25T21:56:55.140Z,16.40
2018-03-25T21:59:22.607Z,18.80
2018-03-25T22:01:50.199Z,21.67
2018-03-25T22:04:17.678Z,19.00
2018-03-25T22:06:45.140Z,17.50
2018-03-25T22:09:12.606Z,21.37
2018-03-25T22:11:40.094Z,18.70
2018-03-25T22:14:07.581Z,21.40
2018-03-25T22:16:35.017Z,19.13
2018-03-25T22:19:02.614Z,21.77
2018-03-25T22:21:30.090Z,19.57
2018-03-25T22:23:57.557Z,19.43
2018-03-25T22:26:25.020Z,18.20
2018-03-25T22:28:53.254Z,19.40
2018-03-25T22:31:20.838Z,20.07
2018-03-25T22:33:48.402Z,19.43
2018-03-25T22:36:15.847Z,21.57
2018-03-25T22:38:44.092Z,18.10
2018-03-25T22:41:11.551Z,18.43
2018-03-25T22:43:39.008Z,20.23
2018-03-25T22:46:06.465Z,19.77
2018-03-25T22:48:33.937Z,20.50
2018-03-25T22:51:02.280Z,22.43
2018-03-25T22:53:29.737Z,16.90
2018-03-25T22:55:57.194Z,25.20
2018-03-25T22:58:24.667Z,20.60
2018-03-25T23:00:52.119Z,21.90
2018-03-25T23:03:19.588Z,20.87
2018-03-25T23:05:47.046Z,22.63
2018-03-25T23:08:15.268Z,20.07
2018-03-25T23:10:42.724Z,20.50
2018-03-25T23:13:10.186Z,21.43
2018-03-25T23:15:37.643Z,22.17
2018-03-25T23:18:05.093Z,26.17
2018-03-25T23:20:32.558Z,16.70
2018-03-25T23:23:00.030Z,20.97
2018-03-25T23:25:27.525Z,23.20
2018-03-25T23:27:55.752Z,23.37
2018-03-25T23:30:23.225Z,20.57
2018-03-25T23:32:50.680Z,19.63
2018-03-25T23:35:20.659Z,22.47
2018-03-25T23:37:48.313Z,25.23
2018-03-25T23:40:15.782Z,25.00
2018-03-25T23:42:43.250Z,28.50
2018-03-25T23:45:10.706Z,22.07
2018-03-25T23:47:38.169Z,19.30
2018-03-25T23:50:05.622Z,18.63
2018-03-25T23:52:33.859Z,22.70
2018-03-25T23:55:01.314Z,19.43
2018-03-25T23:57:28.771Z,19.03
2018-03-25T23:59:56.228Z,17.77
